Flight Track Log - Related Links

Times and Time Zones

All times are in EST time to prevent confusion due to time zone crossing. See the ASQ5740 flight status page for this flight to view local times or setup timezone preferences in your user account.

Time Position Orientation Groundspeed Altitude Reporting Facility
EST Latitude Longitude Course Direction KTS MPH feet Rate Location/Type
Sun 03:02:59 PM 34.8708 -82.1325 60° Northeast 303 349 5,500  Level Atlanta Center
Sun 03:03:59 PM 34.9322 -82.0550 46° Northeast 308 354 7,900 2,250 Climbing Atlanta Center
Sun 03:04:59 PM 34.9978 -81.9772 44° Northeast 315 362 10,000 1,500 Climbing Atlanta Center
Sun 03:05:59 PM 35.0806 -81.9297 25° Northeast 326 375 10,900 1,400 Climbing Atlanta Center
Sun 03:06:00 PM 35.3952 -81.6699 73° East  Level Estimated
Sun 03:06:59 PM 35.1850 -81.9372 357° North 329 379 12,800  Level Atlanta Center
Sun 03:07:59 PM 35.2847 -81.9194 North 363 418 14,700 1,800 Climbing Atlanta Center
Sun 03:08:59 PM 35.3583 -81.8333 44° Northeast 363 418 16,400 1,600 Climbing Atlanta Center
Sun 03:09:59 PM 35.4061 -81.7072 65° Northeast 381 438 17,900 1,350 Climbing Atlanta Center
Sun 03:10:59 PM 35.4558 -81.5836 64° Northeast 390 449 19,100 1,150 Climbing Atlanta Center
Sun 03:11:59 PM 35.4972 -81.4700 66° East 395 455 20,200 850 Climbing Atlanta Center
Sun 03:12:59 PM 35.5406 -81.3436 67° East 395 455 20,800 600 Climbing Atlanta Center
Sun 03:13:59 PM 35.5853 -81.1967 69° East 408 470 21,400 550 Climbing Atlanta Center
Sun 03:14:59 PM 35.6300 -81.0672 67° East 414 476 21,900 600 Climbing Atlanta Center
Sun 03:15:59 PM 35.6817 -80.9556 60° Northeast 414 476 22,600 750 Climbing Atlanta Center
Sun 03:16:59 PM 35.7347 -80.8306 62° Northeast 407 468 23,400 650 Climbing Atlanta Center
Sun 03:17:59 PM 35.7772 -80.7011 68° East 407 468 23,900 700 Climbing Atlanta Center
Sun 03:18:59 PM 35.8278 -80.5683 65° Northeast 412 474 24,800 850 Climbing Atlanta Center
Sun 03:19:59 PM 35.8819 -80.4200 66° East 418 481 25,600 750 Climbing Atlanta Center
Sun 03:20:59 PM 35.9258 -80.2847 68° East 425 489 26,300 650 Climbing Atlanta Center
Sun 03:21:59 PM 35.9822 -80.1589 61° Northeast 419 482 26,900 218 Climbing Atlanta Center
Sun 03:24:12 PM 36.1022 -79.8800 62° Northeast 428 493 27,000 29 Climbing Washington Center
Sun 03:25:25 PM 36.1844 -79.7353 55° Northeast 456 525 27,000  Level Washington Center
Sun 03:26:26 PM 36.2647 -79.5875 56° Northeast 467 537 27,000  Level Washington Center
Sun 03:27:23 PM 36.3331 -79.4697 54° Northeast 467 537 27,000  Level Washington Center
Sun 03:28:24 PM 36.4239 -79.3092 55° Northeast 467 537 27,000 -397 Level Washington Center
Sun 03:29:24 PM 36.4947 -79.1756 57° Northeast 467 537 26,200 -992 Descending Washington Center
Sun 03:30:25 PM 36.5603 -79.0700 52° Northeast 453 521 25,000 -595 Descending Washington Center
Sun 03:31:25 PM 36.6242 -78.9589 54° Northeast 423 487 25,000  Level Washington Center
Sun 03:32:23 PM 36.6792 -78.8500 58° Northeast 389 448 25,000  Level Washington Center
Sun 03:33:24 PM 36.7383 -78.7436 55° Northeast 375 432 25,000  Level Washington Center
Sun 03:34:25 PM 36.8328 -78.7214 11° North 305 351 25,000  Level Washington Center
Sun 03:35:25 PM 36.8775 -78.7700 319° Northwest 228 262 25,000  Level Washington Center
Sun 03:36:23 PM 36.8478 -78.8725 250° West 171 197 25,000 -102 Level Washington Center
Sun 03:37:23 PM 36.8036 -78.9511 235° Southwest 221 254 24,800 -492 Descending Washington Center
Sun 03:38:25 PM 36.7597 -79.0297 235° Southwest 271 312 24,000 -400 Descending Washington Center
Sun 03:39:23 PM 36.7136 -79.1131 235° Southwest 291 335 24,000  Level Washington Center
Sun 03:40:24 PM 36.6389 -79.1667 210° Southwest 289 333 24,000  Level Washington Center
Sun 03:41:24 PM 36.5908 -79.0300 114° Southeast 214 246 24,000  Level Washington Center
Sun 03:42:24 PM 36.6417 -78.9261 59° Northeast 180 207 24,000  Level Washington Center
Sun 03:43:25 PM 36.6992 -78.8094 58° Northeast 295 339 24,000  Level Washington Center
Sun 03:44:25 PM 36.7661 -78.7239 46° Northeast 311 358 24,000  Level Washington Center
Sun 03:45:23 PM 36.8514 -78.7353 354° North 266 306 24,000  Level Washington Center
Sun 03:46:23 PM 36.8594 -78.8186 277° West 200 230 24,000  Level Washington Center
Sun 03:47:24 PM 36.8017 -78.8783 220° Southwest 185 213 24,000  Level Washington Center
Sun 03:48:25 PM 36.7392 -78.7928 132° Southeast 175 201 24,000  Level Washington Center
Sun 03:49:25 PM 36.7428 -78.6531 88° East 253 291 24,000  Level Washington Center
Sun 03:50:25 PM 36.7511 -78.4928 86° East 331 381 24,000  Level Washington Center
Sun 03:51:23 PM 36.7539 -78.3761 88° East 372 428 24,000  Level Washington Center
Sun 03:52:24 PM 36.7600 -78.2000 87° East 403 464 24,000  Level Washington Center
Sun 03:53:24 PM 36.7650 -78.0550 87° East 415 478 24,000  Level Washington Center
Sun 03:54:25 PM 36.7722 -77.9075 86° East 420 483 24,000  Level Washington Center
Sun 03:55:25 PM 36.7997 -77.7683 76° East 411 473 24,000  Level Washington Center
Sun 03:56:23 PM 36.8981 -77.7503 North 308 354 24,000  Level Washington Center
Sun 03:57:24 PM 36.9939 -77.7658 353° North 295 339 24,000  Level Washington Center
Sun 03:58:24 PM 37.0917 -77.7817 353° North 318 366 24,000  Level Washington Center
Sun 03:59:25 PM 37.1875 -77.7922 355° North 335 386 24,000 -202 Level Washington Center
Sun 04:00:23 PM 37.2831 -77.8028 355° North 340 391 23,600 -706 Descending Washington Center
Sun 04:01:24 PM 37.3808 -77.8161 354° North 345 397 22,600 -1,140 Descending Washington Center
Sun 04:02:24 PM 37.4789 -77.8242 356° North 345 397 21,300 -1,388 Descending Washington Center
Sun 04:03:25 PM 37.5711 -77.8033 10° North 345 397 19,800 -1,488 Descending Washington Center
Sun 04:04:25 PM 37.6722 -77.7486 23° Northeast 377 434 18,300 -1,678 Descending Washington Center
Sun 04:05:23 PM 37.7900 -77.6808 24° Northeast 399 459 16,500 -1,916 Descending Washington Center
Sun 04:06:24 PM 37.8997 -77.6156 25° Northeast 428 493 14,500 -1,967 Descending Washington Center
Sun 04:07:25 PM 38.0028 -77.5525 26° Northeast 426 490 12,500 -2,118 Descending Washington Center
Sun 04:08:23 PM 38.1019 -77.4969 24° Northeast 397 457 10,300 -1,271 Descending Washington Center
Sun 04:09:23 PM 38.1839 -77.4489 25° Northeast 361 415 10,000 -99 Descending Washington Center
Sun 04:10:24 PM 38.2597 -77.4003 27° Northeast 322 371 10,100 -545 Climbing Washington Center
Sun 04:11:24 PM 38.3436 -77.3628 19° North 310 357 8,900 -1,350 Descending Washington Center
Sun 04:12:24 PM 38.4269 -77.3728 355° North 298 343 7,400 -1,339 Descending Washington Center
Sun 04:13:25 PM 38.5081 -77.3825 355° North 292 336 6,200 -1,109 Descending Washington Center
Sun 04:14:23 PM 38.5917 -77.3739 North 292 336 5,200 -756 Descending Washington Center
Sun 04:15:24 PM 38.6731 -77.3706 North 292 336 4,700 -496 Descending Washington Center
Sun 04:16:24 PM 38.7544 -77.3644 North 292 336 4,200 -275 Descending Washington Center
Sun 04:17:35 PM 38.8500 -77.3500 North 285 328 4,100 -46 Descending Potomac TRACON
Sun 04:18:35 PM 38.9333 -77.3500 360° North 286 329 4,100 -550 Level Potomac TRACON
Sun 04:19:35 PM 39.0167 -77.3333 North 282 325 3,000 -1,091 Descending Potomac TRACON
Sun 04:20:36 PM 39.0833 -77.3500 349° North 266 306 1,900 -496 Descending Potomac TRACON
Sun 04:21:36 PM 39.1167 -77.4000 311° West 186 214 2,000 50 Climbing Potomac TRACON
Sun 04:22:36 PM 39.0833 -77.4333 218° Southwest 167 192 2,000  Level Potomac TRACON
Sun 04:23:36 PM 39.0500 -77.4333 180° South 153 176 2,000 -347 Level Potomac TRACON
Sun 04:24:37 PM 39.0000 -77.4333 180° South 141 162 1,300 -694 Descending Potomac TRACON
Sun 04:25:37 PM 38.9667 -77.4333 180° South 135 155 600 -700 Descending Potomac TRACON

Login

Don't have an account? Register now (free) for customized features, flight alerts, and more!